Seo Young — D7LH — position and weather

sailwx.info

Track history (hours):
 
Tides and Currents Weather Stations Pressure Air Temp Water Temp Dewpoint Dewpoint Depression Visibility Wind Speed Wind Dir Waves Ship Positions

Seo Young

Last reported at 2015-Mar-22 05:33 UTC. Time now 2015-Mar-29 12:29 UTC.
Position N 22°26' E 119°56'.

Length 121 m; draft 6 m.

Type: Tanker. MMSI: 440036000.

Date/timePositionNaut miles runAvg speedWind from/ knotsBaromVisibWave heightAir tempDewpointWater temp
2015-Mar-22 05:33N 22°26' E 119°56'1413.6
2015-Mar-22 04:33N 22°35' E 120°08'9 9.1
2015-Mar-22 03:33N 22°35' E 120°18'1 0.0
2015-Mar-21 11:23N 22°35' E 120°18'5 6.3
2015-Mar-21 10:33N 22°37' E 120°13'5 5.1
2015-Mar-21 09:33N 22°35' E 120°08'1 1.4
2015-Mar-21 08:33N 22°36' E 120°07'2 1.6
2015-Mar-21 07:33N 22°37' E 120°06'4 3.7
2015-Mar-21 06:33N 22°38' E 120°02'1 0.7
2015-Mar-21 05:33N 22°38' E 120°01'1 0.6
2015-Mar-21 04:33N 22°39' E 120°01'1 0.8
2015-Mar-21 03:33N 22°40' E 120°02'1 0.9
2015-Mar-21 02:33N 22°41' E 120°02'1 0.5
2015-Mar-21 01:33N 22°40' E 120°03'3 2.6
2015-Mar-21 00:33N 22°43' E 120°04'1412.0
2015-Mar-20 23:23N 22°52' E 119°53'  
2015-Mar-14 21:30N 31°01' E 122°23'1111.4
2015-Mar-14 20:34N 31°03' E 122°10'1110.9
2015-Mar-14 19:34N 31°06' E 121°58'1211.9
2015-Mar-14 18:34N 31°14' E 121°48'1212.2
2015-Mar-14 17:34N 31°22' E 121°37'1010.1
2015-Mar-14 16:34N 31°28' E 121°28'1212.3
2015-Mar-14 15:34N 31°36' E 121°17'1514.6
2015-Mar-14 14:34N 31°45' E 121°04'1212.1
2015-Mar-14 13:33N 31°53' E 120°53'1211.0
2015-Mar-14 12:25N 31°60' E 120°41'1211.4
2015-Mar-14 11:21N 32°04' E 120°27'1113.6
2015-Mar-14 10:33N 31°57' E 120°17'1312.6
2015-Mar-14 09:33N 31°58' E 120°02'7 0.3
2015-Mar-13 09:04N 32°03' E 119°56'611.1
2015-Mar-13 08:33N 31°58' E 120°01'1110.3
2015-Mar-13 07:28N 31°56' E 120°14'1011.3
2015-Mar-13 06:33N 32°02' E 120°24'9 9.1
2015-Mar-13 05:33N 32°02' E 120°35'1010.3
2015-Mar-13 04:33N 32°01' E 120°47'1110.9
2015-Mar-13 03:33N 31°52' E 120°54'1010.0
2015-Mar-13 02:33N 31°46' E 121°04'0 0.5
2015-Mar-13 01:32N 31°47' E 121°04'0 0.0
2015-Mar-13 00:32N 31°47' E 121°04'3 2.7
2015-Mar-12 23:30N 31°45' E 121°01'1 0.7
2015-Mar-12 22:29N 31°45' E 121°02'0 0.0
2015-Mar-12 21:33N 31°45' E 121°02'0 0.0
2015-Mar-12 20:33N 31°45' E 121°02'0 0.0
2015-Mar-12 19:33N 31°45' E 121°02'0 0.0
2015-Mar-12 18:30N 31°45' E 121°02'0 0.0
2015-Mar-12 17:22N 31°45' E 121°02'0 0.0
2015-Mar-12 16:32N 31°45' E 121°02'0 0.0
2015-Mar-12 15:26N 31°45' E 121°02'0 0.0
2015-Mar-12 14:31N 31°45' E 121°02'0 0.0
2015-Mar-12 13:33N 31°45' E 121°02'0 0.0
2015-Mar-12 12:16N 31°45' E 121°02'0 0.0
2015-Mar-12 11:30N 31°45' E 121°02'0 0.0
2015-Mar-12 10:33N 31°45' E 121°02'0 0.0
2015-Mar-12 09:32N 31°45' E 121°02'0 0.0
2015-Mar-12 08:29N 31°45' E 121°02'0 0.0
2015-Mar-12 07:31N 31°45' E 121°02'0 0.0
2015-Mar-12 06:26N 31°45' E 121°02'  
Track history (hours):
 
Tides and Currents Weather Stations Pressure Air Temp Water Temp Dewpoint Dewpoint Depression Visibility Wind Speed Wind Dir Waves Ship Positions

Seo Young

Last reported at 2015-Mar-22 05:33 UTC. Time now 2015-Mar-29 12:29 UTC.
Position N 22°26' E 119°56'.

Length 121 m; draft 6 m.

Type: Tanker. MMSI: 440036000.

Date/timePositionNaut miles runAvg speedWind from/ knotsBaromVisibWave heightAir tempDewpointWater temp
2015-Mar-22 05:33N 22°26' E 119°56'1413.6
2015-Mar-22 04:33N 22°35' E 120°08'9 9.1
2015-Mar-22 03:33N 22°35' E 120°18'1 0.0
2015-Mar-21 11:23N 22°35' E 120°18'5 6.3
2015-Mar-21 10:33N 22°37' E 120°13'5 5.1
2015-Mar-21 09:33N 22°35' E 120°08'1 1.4
2015-Mar-21 08:33N 22°36' E 120°07'2 1.6
2015-Mar-21 07:33N 22°37' E 120°06'4 3.7
2015-Mar-21 06:33N 22°38' E 120°02'1 0.7
2015-Mar-21 05:33N 22°38' E 120°01'1 0.6
2015-Mar-21 04:33N 22°39' E 120°01'1 0.8
2015-Mar-21 03:33N 22°40' E 120°02'1 0.9
2015-Mar-21 02:33N 22°41' E 120°02'1 0.5
2015-Mar-21 01:33N 22°40' E 120°03'3 2.6
2015-Mar-21 00:33N 22°43' E 120°04'1412.0
2015-Mar-20 23:23N 22°52' E 119°53'  
2015-Mar-14 21:30N 31°01' E 122°23'1111.4
2015-Mar-14 20:34N 31°03' E 122°10'1110.9
2015-Mar-14 19:34N 31°06' E 121°58'1211.9
2015-Mar-14 18:34N 31°14' E 121°48'1212.2
2015-Mar-14 17:34N 31°22' E 121°37'1010.1
2015-Mar-14 16:34N 31°28' E 121°28'1212.3
2015-Mar-14 15:34N 31°36' E 121°17'1514.6
2015-Mar-14 14:34N 31°45' E 121°04'1212.1
2015-Mar-14 13:33N 31°53' E 120°53'1211.0
2015-Mar-14 12:25N 31°60' E 120°41'1211.4
2015-Mar-14 11:21N 32°04' E 120°27'1113.6
2015-Mar-14 10:33N 31°57' E 120°17'1312.6
2015-Mar-14 09:33N 31°58' E 120°02'7 0.3
2015-Mar-13 09:04N 32°03' E 119°56'611.1
2015-Mar-13 08:33N 31°58' E 120°01'1110.3
2015-Mar-13 07:28N 31°56' E 120°14'1011.3
2015-Mar-13 06:33N 32°02' E 120°24'9 9.1
2015-Mar-13 05:33N 32°02' E 120°35'1010.3
2015-Mar-13 04:33N 32°01' E 120°47'1110.9
2015-Mar-13 03:33N 31°52' E 120°54'1010.0
2015-Mar-13 02:33N 31°46' E 121°04'0 0.5
2015-Mar-13 01:32N 31°47' E 121°04'0 0.0
2015-Mar-13 00:32N 31°47' E 121°04'3 2.7
2015-Mar-12 23:30N 31°45' E 121°01'1 0.7
2015-Mar-12 22:29N 31°45' E 121°02'0 0.0
2015-Mar-12 21:33N 31°45' E 121°02'0 0.0
2015-Mar-12 20:33N 31°45' E 121°02'0 0.0
2015-Mar-12 19:33N 31°45' E 121°02'0 0.0
2015-Mar-12 18:30N 31°45' E 121°02'0 0.0
2015-Mar-12 17:22N 31°45' E 121°02'0 0.0
2015-Mar-12 16:32N 31°45' E 121°02'0 0.0
2015-Mar-12 15:26N 31°45' E 121°02'0 0.0
2015-Mar-12 14:31N 31°45' E 121°02'0 0.0
2015-Mar-12 13:33N 31°45' E 121°02'0 0.0
2015-Mar-12 12:16N 31°45' E 121°02'0 0.0
2015-Mar-12 11:30N 31°45' E 121°02'0 0.0
2015-Mar-12 10:33N 31°45' E 121°02'0 0.0
2015-Mar-12 09:32N 31°45' E 121°02'0 0.0
2015-Mar-12 08:29N 31°45' E 121°02'0 0.0
2015-Mar-12 07:31N 31°45' E 121°02'0 0.0
2015-Mar-12 06:26N 31°45' E 121°02'  

Dump ship's entire track history